createdAt,value
2023-08-20T00:01:26.035Z,76.89
2023-08-20T00:03:54.973Z,76.43
2023-08-20T00:06:24.229Z,76.87
2023-08-20T00:08:52.434Z,76.84
2023-08-20T00:11:21.484Z,76.75
2023-08-20T00:13:49.223Z,77.83
2023-08-20T00:16:17.308Z,77.50
2023-08-20T00:18:45.513Z,78.28
2023-08-20T00:21:13.695Z,77.67
2023-08-20T00:23:41.953Z,76.98
2023-08-20T00:26:10.253Z,78.13
2023-08-20T00:28:39.832Z,78.22
2023-08-20T00:31:07.555Z,77.86
2023-08-20T00:33:35.297Z,77.96
2023-08-20T00:36:03.570Z,81.18
2023-08-20T00:38:31.462Z,78.73
2023-08-20T00:40:59.173Z,78.25
2023-08-20T00:43:26.894Z,77.88
2023-08-20T00:45:55.967Z,79.77
2023-08-20T00:48:23.770Z,78.14
2023-08-20T00:50:51.557Z,77.73
2023-08-20T00:53:20.015Z,78.68
2023-08-20T00:55:47.957Z,80.33
2023-08-20T00:58:16.625Z,80.39
2023-08-20T01:00:44.356Z,80.57
2023-08-20T01:03:13.423Z,78.46
2023-08-20T01:05:48.974Z,79.67
2023-08-20T01:08:29.433Z,78.22
2023-08-20T01:11:03.106Z,78.91
2023-08-20T01:13:30.775Z,77.87
2023-08-20T01:15:58.476Z,77.73
2023-08-20T01:18:27.803Z,79.62
2023-08-20T01:21:00.424Z,77.75
2023-08-20T01:23:50.282Z,77.42
2023-08-20T01:26:30.685Z,77.25
2023-08-20T01:28:59.969Z,76.66
2023-08-20T01:31:29.018Z,77.27
2023-08-20T01:33:58.639Z,79.45
2023-08-20T01:36:26.772Z,77.81
2023-08-20T01:38:54.410Z,78.85
2023-08-20T01:41:22.100Z,78.46
2023-08-20T01:43:49.825Z,77.59
2023-08-20T01:46:18.882Z,76.95
2023-08-20T01:48:46.636Z,80.25
2023-08-20T01:51:14.513Z,78.49
2023-08-20T01:53:42.181Z,77.79
2023-08-20T01:56:13.372Z,77.24
2023-08-20T01:58:41.489Z,77.26
2023-08-20T02:01:09.261Z,77.86
2023-08-20T02:03:39.038Z,77.36
2023-08-20T02:06:06.916Z,77.34
2023-08-20T02:08:34.658Z,80.69
2023-08-20T02:11:03.661Z,80.08
2023-08-20T02:13:31.460Z,78.11
2023-08-20T02:16:03.048Z,78.04
2023-08-20T02:18:30.925Z,76.69
2023-08-20T02:21:00.252Z,78.60
2023-08-20T02:23:28.031Z,81.71
2023-08-20T02:25:55.811Z,78.53
2023-08-20T02:28:23.910Z,77.13
2023-08-20T02:30:51.604Z,79.95
2023-08-20T02:33:19.388Z,78.61
2023-08-20T02:35:47.114Z,78.19
2023-08-20T02:38:16.253Z,78.99
2023-08-20T02:40:44.087Z,78.75
2023-08-20T02:43:11.806Z,79.61
2023-08-20T02:45:44.164Z,80.08
2023-08-20T02:48:12.152Z,82.17
2023-08-20T02:50:39.944Z,83.11
2023-08-20T02:53:07.794Z,84.22
2023-08-20T02:55:37.132Z,85.76
2023-08-20T02:58:05.157Z,85.92
2023-08-20T03:00:32.948Z,86.61
2023-08-20T03:03:00.672Z,86.40
2023-08-20T03:05:28.659Z,87.66
2023-08-20T03:07:56.372Z,86.42
2023-08-20T03:10:24.064Z,85.91
2023-08-20T03:12:53.116Z,83.92
2023-08-20T03:15:21.052Z,84.74
2023-08-20T03:17:48.834Z,83.59
2023-08-20T03:20:16.745Z,86.68
2023-08-20T03:22:44.417Z,86.58
2023-08-20T03:25:12.160Z,86.33
2023-08-20T03:27:39.884Z,86.97
2023-08-20T03:30:09.922Z,88.68
2023-08-20T03:32:37.598Z,86.89
2023-08-20T03:35:06.067Z,87.64
2023-08-20T03:37:34.133Z,88.29
2023-08-20T03:40:02.022Z,88.77
2023-08-20T03:42:29.730Z,88.55
2023-08-20T03:44:57.404Z,90.33
2023-08-20T03:47:26.560Z,87.86
2023-08-20T03:49:54.431Z,87.79
2023-08-20T03:52:22.120Z,87.83
2023-08-20T03:54:51.278Z,87.10
2023-08-20T03:57:18.985Z,88.10
2023-08-20T03:59:47.407Z,89.06
2023-08-20T04:02:15.624Z,88.09
2023-08-20T04:04:44.662Z,86.38
2023-08-20T04:07:12.308Z,86.06
2023-08-20T04:09:40.726Z,86.36
2023-08-20T04:12:09.033Z,85.83
2023-08-20T04:14:36.774Z,86.37
2023-08-20T04:17:04.498Z,85.95
2023-08-20T04:19:32.183Z,86.39
2023-08-20T04:22:01.207Z,85.89
2023-08-20T04:24:29.004Z,85.74
2023-08-20T04:26:56.776Z,85.48
2023-08-20T04:29:24.458Z,85.21
2023-08-20T04:31:52.136Z,87.35
2023-08-20T04:34:19.808Z,85.97
2023-08-20T04:36:47.592Z,85.71
2023-08-20T04:39:16.570Z,84.55
2023-08-20T04:41:44.261Z,85.20
2023-08-20T04:44:12.074Z,85.20
2023-08-20T04:46:39.770Z,85.63
2023-08-20T04:49:07.642Z,84.41
2023-08-20T04:51:35.314Z,85.15
2023-08-20T04:54:02.977Z,84.80
2023-08-20T04:56:32.036Z,83.86
2023-08-20T04:58:59.708Z,85.15
2023-08-20T05:01:27.460Z,85.58
2023-08-20T05:03:55.168Z,85.12
2023-08-20T05:06:22.877Z,85.01
2023-08-20T05:08:50.516Z,84.57
2023-08-20T05:11:18.189Z,84.14
2023-08-20T05:13:47.740Z,84.07
2023-08-20T05:16:15.441Z,84.31
2023-08-20T05:18:43.133Z,85.09
2023-08-20T05:21:14.432Z,85.81
2023-08-20T05:23:42.305Z,87.05
2023-08-20T05:26:10.235Z,84.09
2023-08-20T05:28:37.900Z,78.90
2023-08-20T05:31:06.951Z,83.40
2023-08-20T05:33:34.872Z,77.76
2023-08-20T05:36:02.567Z,68.07
2023-08-20T05:38:30.248Z,60.44
2023-08-20T05:40:57.902Z,58.07
2023-08-20T05:43:25.576Z,54.78
2023-08-20T05:45:53.273Z,54.13
2023-08-20T05:48:22.311Z,54.84
2023-08-20T05:50:49.989Z,56.96
2023-08-20T05:53:17.636Z,62.53
2023-08-20T05:55:45.306Z,62.72
2023-08-20T05:58:13.154Z,65.02
2023-08-20T06:00:41.029Z,63.27
2023-08-20T06:03:08.987Z,64.63
2023-08-20T06:05:38.139Z,63.24
2023-08-20T06:08:06.605Z,65.25
2023-08-20T06:10:34.273Z,63.67
2023-08-20T06:13:01.975Z,65.99
2023-08-20T06:15:29.679Z,67.28
2023-08-20T06:17:57.388Z,68.55
2023-08-20T06:20:25.092Z,72.00
2023-08-20T06:22:54.109Z,72.30
2023-08-20T06:25:21.847Z,72.60
2023-08-20T06:27:49.542Z,72.64
2023-08-20T06:30:17.281Z,70.92
2023-08-20T06:32:46.595Z,70.48
2023-08-20T06:35:14.284Z,71.49
2023-08-20T06:37:42.198Z,70.78
2023-08-20T06:40:12.241Z,71.89
2023-08-20T06:42:40.947Z,72.60
2023-08-20T06:45:10.342Z,70.35
2023-08-20T06:47:38.459Z,70.06
2023-08-20T06:50:08.021Z,66.60
2023-08-20T06:52:35.731Z,69.27
2023-08-20T06:55:03.535Z,63.81
2023-08-20T06:57:32.787Z,61.12
2023-08-20T07:00:00.634Z,58.92
2023-08-20T07:02:28.376Z,63.93
2023-08-20T07:04:56.099Z,65.37
2023-08-20T07:07:24.283Z,62.69
2023-08-20T07:09:51.947Z,58.18
2023-08-20T07:12:19.621Z,57.14
2023-08-20T07:14:48.610Z,58.28
2023-08-20T07:17:16.267Z,56.40
2023-08-20T07:19:43.980Z,54.72
2023-08-20T07:22:11.643Z,54.60
2023-08-20T07:24:39.366Z,56.19
2023-08-20T07:27:12.182Z,54.55
2023-08-20T07:29:39.915Z,55.31
2023-08-20T07:32:09.104Z,54.95
2023-08-20T07:34:36.757Z,57.41
2023-08-20T07:37:06.050Z,58.73
2023-08-20T07:39:33.743Z,56.28
2023-08-20T07:42:01.467Z,52.77
2023-08-20T07:44:29.483Z,50.17
2023-08-20T07:46:57.186Z,51.50
2023-08-20T07:49:26.287Z,50.75
2023-08-20T07:51:55.532Z,48.46
2023-08-20T07:54:23.274Z,45.25
2023-08-20T07:56:50.926Z,47.77
2023-08-20T07:59:18.570Z,44.75
2023-08-20T08:01:46.343Z,44.55
2023-08-20T08:04:14.032Z,47.55
2023-08-20T08:06:43.098Z,43.43
2023-08-20T08:09:20.218Z,40.44
2023-08-20T08:11:47.884Z,43.26
2023-08-20T08:14:15.671Z,41.81
2023-08-20T08:16:43.368Z,40.80
2023-08-20T08:19:11.073Z,40.56
2023-08-20T08:21:38.846Z,38.41
2023-08-20T08:24:08.191Z,39.49
2023-08-20T08:26:36.664Z,40.46
2023-08-20T08:29:04.808Z,40.59
2023-08-20T08:31:32.660Z,39.63
2023-08-20T08:34:00.425Z,38.00
2023-08-20T08:36:28.066Z,40.86
2023-08-20T08:38:56.981Z,39.58
2023-08-20T08:41:28.115Z,39.02
2023-08-20T08:43:57.339Z,40.69
2023-08-20T08:46:26.386Z,39.92
2023-08-20T08:48:54.745Z,40.44
2023-08-20T08:51:22.444Z,42.66
2023-08-20T08:53:50.151Z,42.93
2023-08-20T08:56:17.787Z,39.42
2023-08-20T08:58:46.999Z,41.39
2023-08-20T09:01:15.588Z,40.86
2023-08-20T09:03:43.740Z,40.47
2023-08-20T09:06:12.122Z,39.46
2023-08-20T09:08:40.234Z,37.53
2023-08-20T09:11:07.971Z,40.17
2023-08-20T09:13:37.434Z,40.02
2023-08-20T09:16:07.784Z,43.39
2023-08-20T09:18:40.326Z,42.90
2023-08-20T09:21:09.504Z,46.39
2023-08-20T09:23:37.387Z,44.25
2023-08-20T09:26:06.269Z,45.46
2023-08-20T09:28:43.187Z,48.51
2023-08-20T09:31:12.316Z,49.98
2023-08-20T09:33:51.694Z,51.22
2023-08-20T09:36:20.377Z,54.04
2023-08-20T09:38:50.605Z,53.47
2023-08-20T09:41:19.735Z,53.47
2023-08-20T09:43:50.725Z,56.12
2023-08-20T09:46:22.496Z,54.05
2023-08-20T09:48:52.788Z,57.61
2023-08-20T09:51:23.885Z,57.34
2023-08-20T09:54:00.938Z,57.53
2023-08-20T09:56:30.471Z,56.54
2023-08-20T09:58:59.699Z,57.47
2023-08-20T10:01:29.573Z,58.32
2023-08-20T10:03:58.238Z,59.14
2023-08-20T10:06:26.830Z,55.95
2023-08-20T10:08:55.910Z,55.00
2023-08-20T10:11:23.771Z,57.71
2023-08-20T10:13:51.904Z,58.57
2023-08-20T10:16:22.057Z,58.39
2023-08-20T10:18:51.585Z,57.89
2023-08-20T10:21:19.286Z,56.40
2023-08-20T10:23:51.112Z,57.23
2023-08-20T10:26:19.970Z,56.87
2023-08-20T10:28:47.636Z,54.63
2023-08-20T10:31:18.332Z,54.55
2023-08-20T10:33:56.142Z,56.78
2023-08-20T10:36:29.001Z,58.39
2023-08-20T10:38:58.022Z,58.79
2023-08-20T10:41:29.679Z,56.05
2023-08-20T10:43:59.998Z,56.29
2023-08-20T10:46:31.166Z,55.77
2023-08-20T10:49:01.234Z,57.05
2023-08-20T10:51:30.187Z,56.42
2023-08-20T10:54:08.884Z,57.72
2023-08-20T10:56:41.894Z,57.07
2023-08-20T10:59:10.891Z,58.39
2023-08-20T11:01:39.489Z,58.13
2023-08-20T11:04:09.368Z,59.49
2023-08-20T11:06:37.097Z,57.44
2023-08-20T11:09:06.735Z,57.06
2023-08-20T11:11:34.781Z,56.90
2023-08-20T11:14:08.823Z,57.82
2023-08-20T11:16:37.338Z,57.20
2023-08-20T11:19:09.565Z,56.99
2023-08-20T11:21:40.567Z,57.44
2023-08-20T11:24:08.978Z,56.00
2023-08-20T11:26:37.770Z,54.47
2023-08-20T11:29:07.778Z,54.33
2023-08-20T11:31:35.502Z,54.52
2023-08-20T11:34:04.058Z,53.53
2023-08-20T11:36:32.316Z,54.15
2023-08-20T11:39:01.518Z,55.32
2023-08-20T11:41:29.511Z,57.21
2023-08-20T11:43:57.348Z,56.21
2023-08-20T11:46:26.189Z,56.33
2023-08-20T11:49:05.392Z,57.47
2023-08-20T11:51:38.855Z,57.72
2023-08-20T11:54:09.903Z,55.85
2023-08-20T11:56:39.702Z,56.32
2023-08-20T11:59:07.454Z,55.45
2023-08-20T12:01:35.268Z,54.88
2023-08-20T12:04:04.050Z,54.98
2023-08-20T12:06:32.524Z,53.63
2023-08-20T12:09:00.489Z,54.36
2023-08-20T12:11:30.375Z,54.73
2023-08-20T12:13:58.743Z,53.58
2023-08-20T12:16:26.962Z,54.20
2023-08-20T12:18:55.034Z,54.65
2023-08-20T12:21:22.731Z,55.59
2023-08-20T12:23:50.710Z,56.18
2023-08-20T12:26:19.217Z,54.66
2023-08-20T12:28:48.286Z,56.47
2023-08-20T12:31:16.712Z,54.57
2023-08-20T12:33:44.445Z,53.82
2023-08-20T12:36:12.119Z,53.88
2023-08-20T12:38:39.919Z,55.00
2023-08-20T12:41:07.670Z,53.58
2023-08-20T12:43:35.432Z,53.08
2023-08-20T12:46:04.626Z,53.35
2023-08-20T12:48:32.414Z,53.59
2023-08-20T12:51:00.383Z,53.11
2023-08-20T12:53:28.170Z,53.73
2023-08-20T12:55:55.931Z,53.95
2023-08-20T12:58:25.089Z,54.04
2023-08-20T13:00:52.786Z,53.03
2023-08-20T13:03:22.471Z,54.08
2023-08-20T13:05:50.702Z,54.09
2023-08-20T13:08:18.962Z,53.77
2023-08-20T13:10:52.481Z,54.28
2023-08-20T13:13:22.921Z,54.08
2023-08-20T13:15:51.346Z,56.10
2023-08-20T13:18:25.741Z,54.21
2023-08-20T13:20:54.622Z,54.09
2023-08-20T13:23:22.511Z,54.19
2023-08-20T13:25:50.174Z,53.41
2023-08-20T13:28:18.972Z,53.32
2023-08-20T13:30:46.800Z,52.61
2023-08-20T13:33:14.844Z,52.30
2023-08-20T13:35:44.068Z,52.63
2023-08-20T13:38:11.958Z,53.73
2023-08-20T13:40:39.678Z,54.18
2023-08-20T13:43:07.400Z,55.01
2023-08-20T13:45:35.091Z,53.95
2023-08-20T13:48:02.871Z,51.97
2023-08-20T13:50:31.026Z,53.11
2023-08-20T13:53:01.660Z,53.46
2023-08-20T13:55:32.149Z,54.03
2023-08-20T13:57:59.886Z,53.91
2023-08-20T14:00:27.694Z,54.14
2023-08-20T14:02:55.514Z,55.16
2023-08-20T14:05:23.274Z,55.04
2023-08-20T14:07:50.938Z,53.98
2023-08-20T14:10:19.959Z,53.28
2023-08-20T14:12:47.643Z,53.26
2023-08-20T14:15:15.844Z,52.08
2023-08-20T14:17:43.553Z,52.73
2023-08-20T14:20:12.619Z,55.08
2023-08-20T14:22:40.589Z,53.52
2023-08-20T14:25:09.249Z,53.98
2023-08-20T14:27:38.400Z,54.95
2023-08-20T14:30:08.979Z,53.10
2023-08-20T14:32:40.053Z,52.35
2023-08-20T14:35:09.261Z,52.21
2023-08-20T14:37:36.903Z,52.99
2023-08-20T14:40:07.640Z,52.25
2023-08-20T14:42:35.894Z,53.43
2023-08-20T14:45:06.402Z,52.02
2023-08-20T14:47:34.145Z,51.01
2023-08-20T14:50:01.906Z,51.48
2023-08-20T14:52:29.611Z,51.81
2023-08-20T14:54:57.293Z,52.24
2023-08-20T14:57:26.330Z,51.50
2023-08-20T14:59:59.437Z,50.56
2023-08-20T15:02:28.641Z,50.87
2023-08-20T15:04:56.374Z,51.67
2023-08-20T15:07:24.845Z,52.09
2023-08-20T15:09:52.637Z,53.43
2023-08-20T15:12:20.450Z,51.72
2023-08-20T15:14:48.095Z,52.56
2023-08-20T15:17:15.741Z,53.13
2023-08-20T15:19:45.075Z,53.25
2023-08-20T15:22:13.181Z,52.28
2023-08-20T15:24:40.797Z,51.40
2023-08-20T15:27:08.888Z,52.00
2023-08-20T15:29:39.092Z,53.02
2023-08-20T15:32:07.186Z,53.58
2023-08-20T15:34:34.851Z,53.42
2023-08-20T15:37:04.875Z,52.57
2023-08-20T15:39:34.969Z,52.74
2023-08-20T15:42:02.901Z,53.75
2023-08-20T15:44:30.620Z,53.15
2023-08-20T15:46:58.359Z,54.71
2023-08-20T15:49:28.257Z,54.69
2023-08-20T15:51:56.024Z,54.43
2023-08-20T15:54:26.626Z,55.66
2023-08-20T15:56:54.679Z,54.95
2023-08-20T15:59:22.613Z,54.72
2023-08-20T16:01:50.660Z,54.86
2023-08-20T16:04:18.405Z,54.17
2023-08-20T16:06:46.174Z,53.65
2023-08-20T16:09:13.926Z,55.31
2023-08-20T16:11:42.992Z,54.66
2023-08-20T16:14:11.357Z,54.68
2023-08-20T16:16:39.633Z,54.65
2023-08-20T16:19:07.395Z,54.96
2023-08-20T16:21:35.429Z,54.87
2023-08-20T16:24:05.272Z,54.13
2023-08-20T16:26:34.832Z,53.72
2023-08-20T16:29:04.524Z,54.74
2023-08-20T16:31:32.415Z,53.87
2023-08-20T16:34:00.078Z,54.06
2023-08-20T16:36:27.760Z,53.64
2023-08-20T16:38:55.705Z,53.17
2023-08-20T16:41:23.404Z,52.63
2023-08-20T16:43:51.138Z,53.31
2023-08-20T16:46:20.175Z,53.07
2023-08-20T16:48:47.857Z,52.73
2023-08-20T16:51:15.564Z,52.98
2023-08-20T16:53:43.274Z,53.31
2023-08-20T16:56:10.976Z,52.82
2023-08-20T16:58:38.679Z,53.24
2023-08-20T17:01:06.896Z,53.09
2023-08-20T17:03:35.933Z,53.52
2023-08-20T17:06:05.334Z,53.73
2023-08-20T17:08:33.224Z,53.84
2023-08-20T17:11:07.874Z,54.10
2023-08-20T17:13:36.831Z,55.53
2023-08-20T17:16:05.636Z,56.06
2023-08-20T17:18:33.892Z,55.78
2023-08-20T17:21:03.636Z,54.72
2023-08-20T17:23:33.415Z,54.29
2023-08-20T17:26:01.188Z,53.92
2023-08-20T17:28:29.160Z,55.17
2023-08-20T17:30:57.076Z,55.42
2023-08-20T17:33:25.187Z,55.41
2023-08-20T17:35:52.878Z,55.54
2023-08-20T17:38:23.084Z,56.11
2023-08-20T17:40:50.773Z,55.57
2023-08-20T17:43:18.638Z,56.02
2023-08-20T17:45:46.395Z,55.80
2023-08-20T17:48:16.100Z,55.85
2023-08-20T17:50:44.082Z,56.32
2023-08-20T17:53:11.791Z,56.95
2023-08-20T17:55:40.858Z,57.69
2023-08-20T17:58:08.975Z,57.54
2023-08-20T18:00:36.659Z,57.52
2023-08-20T18:03:05.148Z,58.33
2023-08-20T18:05:33.338Z,58.56
2023-08-20T18:08:02.177Z,58.11
2023-08-20T18:10:29.962Z,59.23
2023-08-20T18:12:59.513Z,59.84
2023-08-20T18:15:28.071Z,60.40
2023-08-20T18:17:55.929Z,60.27
2023-08-20T18:20:24.074Z,60.23
2023-08-20T18:22:51.715Z,60.47
2023-08-20T18:25:19.463Z,61.42
2023-08-20T18:27:47.229Z,61.28
2023-08-20T18:30:17.477Z,60.99
2023-08-20T18:32:45.114Z,60.22
2023-08-20T18:35:13.162Z,59.87
2023-08-20T18:37:40.909Z,60.46
2023-08-20T18:40:11.552Z,59.70
2023-08-20T18:42:39.964Z,60.46
2023-08-20T18:45:09.313Z,60.30
2023-08-20T18:47:38.468Z,61.00
2023-08-20T18:50:07.189Z,61.21
2023-08-20T18:52:35.127Z,62.44
2023-08-20T18:55:03.145Z,61.91
2023-08-20T18:57:30.795Z,61.55
2023-08-20T19:00:00.327Z,62.30
2023-08-20T19:02:28.121Z,62.92
2023-08-20T19:04:57.455Z,62.47
2023-08-20T19:07:26.497Z,62.54
2023-08-20T19:09:56.398Z,63.01
2023-08-20T19:12:24.051Z,62.76
2023-08-20T19:14:51.914Z,63.35
2023-08-20T19:17:19.560Z,63.81
2023-08-20T19:19:47.231Z,64.59
2023-08-20T19:22:17.164Z,64.39
2023-08-20T19:24:44.827Z,64.76
2023-08-20T19:27:12.897Z,65.68
2023-08-20T19:29:40.581Z,65.75
2023-08-20T19:32:08.416Z,65.69
2023-08-20T19:34:36.096Z,65.61
2023-08-20T19:37:04.680Z,66.97
2023-08-20T19:39:33.757Z,70.41
2023-08-20T19:42:02.542Z,72.13
2023-08-20T19:44:30.252Z,75.61
2023-08-20T19:46:57.980Z,77.99
2023-08-20T19:49:25.653Z,74.49
2023-08-20T19:51:53.342Z,78.01
2023-08-20T19:54:22.457Z,77.02
2023-08-20T19:56:51.800Z,80.87
2023-08-20T19:59:19.910Z,80.86
2023-08-20T20:01:48.690Z,79.23
2023-08-20T20:04:17.093Z,75.45
2023-08-20T20:06:45.250Z,77.82
2023-08-20T20:09:13.499Z,79.30
2023-08-20T20:11:41.170Z,80.89
2023-08-20T20:14:10.257Z,81.98
2023-08-20T20:16:38.219Z,80.70
2023-08-20T20:19:05.921Z,80.76
2023-08-20T20:21:33.601Z,82.17
2023-08-20T20:24:01.336Z,84.10
2023-08-20T20:26:28.967Z,79.42
2023-08-20T20:28:57.351Z,78.50
2023-08-20T20:31:26.658Z,77.67
2023-08-20T20:33:54.409Z,78.51
2023-08-20T20:36:22.087Z,75.38
2023-08-20T20:38:49.899Z,75.63
2023-08-20T20:41:17.878Z,73.76
2023-08-20T20:43:45.650Z,73.72
2023-08-20T20:46:13.357Z,74.93
2023-08-20T20:48:42.382Z,74.52
2023-08-20T20:51:10.054Z,75.41
2023-08-20T20:53:37.708Z,77.33
2023-08-20T20:56:05.735Z,74.19
2023-08-20T20:58:33.476Z,75.95
2023-08-20T21:01:01.244Z,79.60
2023-08-20T21:03:28.961Z,80.11
2023-08-20T21:05:57.958Z,78.39
2023-08-20T21:08:25.874Z,77.55
2023-08-20T21:10:53.534Z,82.64
2023-08-20T21:13:21.653Z,79.03
2023-08-20T21:15:49.319Z,80.49
2023-08-20T21:18:17.066Z,79.15
2023-08-20T21:20:44.793Z,76.76
2023-08-20T21:23:13.823Z,79.08
2023-08-20T21:25:41.943Z,79.99
2023-08-20T21:28:09.652Z,79.92
2023-08-20T21:30:37.323Z,80.42
2023-08-20T21:33:05.311Z,81.08
2023-08-20T21:35:32.981Z,83.37
2023-08-20T21:38:00.640Z,85.04
2023-08-20T21:40:29.815Z,82.20
2023-08-20T21:42:57.541Z,82.74
2023-08-20T21:45:25.201Z,80.68
2023-08-20T21:47:52.957Z,79.90
2023-08-20T21:50:20.662Z,79.21
2023-08-20T21:52:48.348Z,81.47
2023-08-20T21:55:16.345Z,78.45
2023-08-20T21:57:46.759Z,81.03
2023-08-20T22:00:16.599Z,81.53
2023-08-20T22:02:45.370Z,78.41
2023-08-20T22:05:14.349Z,77.68
2023-08-20T22:07:44.432Z,80.28
2023-08-20T22:10:12.874Z,79.55
2023-08-20T22:12:41.073Z,78.73
2023-08-20T22:15:11.813Z,80.41
2023-08-20T22:17:39.813Z,77.90
2023-08-20T22:20:11.068Z,76.13
2023-08-20T22:22:39.725Z,78.78
2023-08-20T22:25:08.782Z,80.12
2023-08-20T22:27:37.179Z,81.75
2023-08-20T22:30:05.854Z,84.14
2023-08-20T22:32:35.452Z,83.37
2023-08-20T22:35:03.465Z,85.58
2023-08-20T22:37:31.241Z,84.41
2023-08-20T22:39:58.906Z,86.99
2023-08-20T22:42:26.523Z,85.55
2023-08-20T22:44:54.189Z,87.39
2023-08-20T22:47:22.189Z,87.43
2023-08-20T22:49:51.440Z,84.34
2023-08-20T22:52:19.161Z,86.32
2023-08-20T22:54:46.824Z,88.33
2023-08-20T22:57:14.484Z,86.52
2023-08-20T22:59:42.197Z,86.43
2023-08-20T23:02:09.908Z,85.19
2023-08-20T23:04:37.659Z,80.94
2023-08-20T23:07:06.904Z,79.85
2023-08-20T23:09:34.555Z,77.99
2023-08-20T23:12:02.251Z,81.20
2023-08-20T23:14:29.967Z,82.83
2023-08-20T23:16:57.832Z,79.81
2023-08-20T23:19:26.882Z,78.49
2023-08-20T23:21:54.542Z,84.71
2023-08-20T23:24:23.640Z,85.32
2023-08-20T23:26:51.315Z,84.78
2023-08-20T23:29:18.980Z,83.22
2023-08-20T23:31:47.127Z,78.79
2023-08-20T23:34:14.814Z,82.41
2023-08-20T23:36:42.629Z,85.10
2023-08-20T23:39:10.284Z,85.57
2023-08-20T23:41:39.274Z,82.41
2023-08-20T23:44:06.918Z,83.31
2023-08-20T23:46:47.200Z,86.55
2023-08-20T23:49:15.791Z,81.63
2023-08-20T23:51:43.547Z,84.07
2023-08-20T23:54:11.249Z,84.80
2023-08-20T23:56:40.326Z,81.71
2023-08-20T23:59:08.208Z,79.60
